Time;durP1;ratioP1;P1;durP2;ratioP2;P2;SDS_P1;SDS_P2;PMS_P1;PMS_P2;Temp;Humidity;BMP_temperature;BMP_pressure;BME280_temperature;BME280_humidity;BME280_pressure;Samples;Min_cycle;Max_cycle;Signal;HPM_P1;HPM_P2
2021/07/17 00:00:18;;;;;;;7.17;6.40;;;23.30;99.90;;;;;;5136898;27;20820;-64
2021/07/17 00:02:44;;;;;;;8.57;6.93;;;23.20;99.90;;;;;;5136829;27;20558;-70
2021/07/17 00:05:13;;;;;;;9.90;6.93;;;23.20;99.90;;;;;;5118745;27;20483;-69
2021/07/17 00:07:40;;;;;;;10.23;7.20;;;23.20;99.90;;;;;;5136020;27;20263;-70
2021/07/17 00:10:44;;;;;;;9.57;8.00;;;23.20;99.90;;;;;;5136939;27;20444;-64
2021/07/17 00:13:09;;;;;;;10.17;7.20;;;23.20;99.90;;;;;;5080019;27;20830;-68
2021/07/17 00:15:36;;;;;;;8.03;7.23;;;23.20;99.90;;;;;;5118453;27;20455;-70
2021/07/17 00:18:03;;;;;;;9.63;7.23;;;23.10;99.90;;;;;;5136412;27;20637;-64
2021/07/17 00:20:29;;;;;;;8.90;7.10;;;23.10;99.90;;;;;;5136891;27;20508;-64
2021/07/17 00:22:54;;;;;;;7.47;6.67;;;23.10;99.90;;;;;;5136441;27;20463;-65
2021/07/17 00:25:21;;;;;;;10.27;7.80;;;23.00;99.90;;;;;;5136842;27;20202;-64
2021/07/17 00:27:47;;;;;;;10.03;7.80;;;22.90;99.90;;;;;;5117916;27;20176;-69
2021/07/17 00:30:14;;;;;;;8.83;7.93;;;22.90;99.90;;;;;;5118241;27;20489;-66
2021/07/17 00:32:40;;;;;;;10.43;8.17;;;22.90;99.90;;;;;;5136246;27;20488;-64
2021/07/17 00:35:07;;;;;;;12.97;9.00;;;22.90;99.90;;;;;;5118084;27;20487;-64
2021/07/17 00:37:33;;;;;;;12.23;8.73;;;22.90;99.90;;;;;;5136208;27;20181;-64
2021/07/17 00:39:59;;;;;;;13.53;8.27;;;22.90;99.90;;;;;;5117766;27;20450;-69
2021/07/17 00:42:25;;;;;;;11.20;8.90;;;22.90;99.90;;;;;;5136055;27;20463;-69
2021/07/17 00:44:51;;;;;;;11.80;9.20;;;22.90;99.90;;;;;;5136453;27;20919;-69
2021/07/17 00:47:17;;;;;;;11.17;8.33;;;23.00;99.90;;;;;;5136179;27;20178;-64
2021/07/17 00:49:43;;;;;;;9.60;8.27;;;23.00;99.90;;;;;;5117651;27;20662;-64
2021/07/17 00:52:09;;;;;;;14.00;8.77;;;23.00;99.90;;;;;;5135901;27;20402;-66
2021/07/17 00:54:35;;;;;;;13.30;8.80;;;23.00;99.90;;;;;;5136169;27;20202;-64
2021/07/17 00:57:02;;;;;;;15.27;10.00;;;23.00;99.90;;;;;;5135699;27;20982;-70
2021/07/17 00:59:31;;;;;;;10.60;9.50;;;23.00;99.90;;;;;;5117460;27;20460;-69
2021/07/17 01:01:58;;;;;;;13.87;9.70;;;23.00;99.90;;;;;;5135672;27;20518;-69
2021/07/17 01:04:25;;;;;;;11.70;8.97;;;23.00;99.90;;;;;;5135894;27;20804;-70
2021/07/17 01:06:51;;;;;;;14.60;9.57;;;23.00;99.90;;;;;;5135559;27;20409;-64
2021/07/17 01:09:17;;;;;;;11.83;9.57;;;23.00;99.90;;;;;;5135782;27;20407;-68
2021/07/17 01:11:43;;;;;;;9.80;8.80;;;23.00;99.90;;;;;;5117049;27;20425;-64
2021/07/17 01:14:08;;;;;;;9.73;8.40;;;23.00;99.90;;;;;;5135620;27;20227;-70
2021/07/17 01:16:35;;;;;;;10.50;8.60;;;23.00;99.90;;;;;;5135630;27;20428;-63
2021/07/17 01:19:02;;;;;;;11.27;9.43;;;22.90;99.90;;;;;;5134403;27;20521;-70
2021/07/17 01:21:28;;;;;;;12.30;9.60;;;22.90;99.90;;;;;;5136000;27;20429;-64
2021/07/17 01:23:54;;;;;;;10.90;9.73;;;22.90;99.90;;;;;;5135353;27;20496;-70
2021/07/17 01:26:20;;;;;;;11.53;8.70;;;22.90;99.90;;;;;;5135894;27;20467;-69
2021/07/17 01:28:45;;;;;;;11.10;9.03;;;22.90;99.90;;;;;;5135291;27;20227;-64
2021/07/17 01:31:13;;;;;;;15.40;9.40;;;22.90;99.90;;;;;;5135749;27;20210;-64
2021/07/17 01:33:40;;;;;;;13.77;9.80;;;22.90;99.90;;;;;;5135248;27;20167;-64
2021/07/17 01:36:06;;;;;;;14.30;9.03;;;22.90;99.90;;;;;;5117169;27;20823;-64
2021/07/17 01:38:31;;;;;;;11.40;9.73;;;22.90;99.90;;;;;;5135098;27;20407;-70
2021/07/17 01:40:57;;;;;;;11.20;9.53;;;22.80;99.90;;;;;;5116935;27;20250;-63
2021/07/17 01:43:23;;;;;;;10.90;9.53;;;22.80;99.90;;;;;;5134950;27;20564;-64
2021/07/17 01:45:48;;;;;;;10.13;8.63;;;22.80;99.90;;;;;;5135555;27;20200;-69
2021/07/17 01:48:14;;;;;;;16.60;10.83;;;22.80;99.90;;;;;;5134887;27;20175;-70
2021/07/17 01:50:41;;;;;;;11.93;9.03;;;22.80;99.90;;;;;;5135368;27;20191;-69
2021/07/17 01:53:10;;;;;;;11.47;8.13;;;22.80;99.90;;;;;;5134783;27;20179;-64
2021/07/17 01:55:36;;;;;;;13.97;8.87;;;22.80;99.90;;;;;;5135286;27;20460;-69
2021/07/17 01:58:03;;;;;;;14.47;9.30;;;22.80;99.90;;;;;;5134746;27;20407;-69
2021/07/17 02:00:29;;;;;;;14.37;10.03;;;22.80;99.90;;;;;;5134674;27;20231;-70
2021/07/17 02:02:55;;;;;;;15.33;9.47;;;22.70;99.90;;;;;;5134608;27;20824;-69
2021/07/17 02:05:25;;;;;;;11.17;8.93;;;22.70;99.90;;;;;;5135041;27;20973;-69
2021/07/17 02:07:51;;;;;;;11.33;9.00;;;22.70;99.90;;;;;;5134620;27;20780;-70
2021/07/17 02:10:25;;;;;;;10.00;8.90;;;22.70;99.90;;;;;;5116480;27;20948;-64
2021/07/17 02:13:10;;;;;;;13.20;10.80;;;22.60;99.90;;;;;;5134584;27;20446;-69
2021/07/17 02:15:57;;;;;;;11.17;9.97;;;22.50;99.90;;;;;;5134622;27;20439;-64
2021/07/17 02:18:25;;;;;;;12.40;9.83;;;22.60;99.90;;;;;;5134624;27;20802;-63
2021/07/17 02:20:51;;;;;;;12.00;9.80;;;22.50;99.90;;;;;;5116268;28;20451;-69
2021/07/17 02:23:17;;;;;;;9.93;8.93;;;22.50;99.90;;;;;;5134390;28;20469;-64
2021/07/17 02:25:42;;;;;;;10.67;9.57;;;22.60;99.90;;;;;;5134840;28;20870;-64
2021/07/17 02:28:08;;;;;;;13.50;10.10;;;22.50;99.90;;;;;;5134377;28;20175;-69
2021/07/17 02:30:34;;;;;;;12.37;9.43;;;22.60;99.90;;;;;;5137518;27;20195;-70
2021/07/17 02:32:59;;;;;;;13.10;10.23;;;22.60;99.90;;;;;;5120485;27;20234;-65
2021/07/17 02:35:25;;;;;;;12.97;9.70;;;22.60;99.90;;;;;;5139031;27;20206;-64
2021/07/17 02:37:51;;;;;;;12.97;10.03;;;22.60;99.90;;;;;;5138570;27;20645;-66
2021/07/17 02:40:17;;;;;;;12.50;9.50;;;22.60;99.90;;;;;;5138620;27;20737;-63
2021/07/17 02:42:43;;;;;;;11.87;10.17;;;22.60;99.90;;;;;;5129212;27;20543;-64
2021/07/17 02:45:09;;;;;;;14.50;11.10;;;22.60;99.90;;;;;;5118088;28;20283;-69
2021/07/17 02:47:35;;;;;;;11.67;9.40;;;22.60;99.90;;;;;;5099430;28;20728;-69
2021/07/17 02:50:01;;;;;;;12.90;9.93;;;22.70;99.90;;;;;;5117992;28;20499;-64
2021/07/17 02:52:26;;;;;;;15.73;10.47;;;22.70;99.90;;;;;;5117591;28;20180;-69
2021/07/17 02:54:52;;;;;;;14.13;10.17;;;22.70;99.90;;;;;;5118042;28;20419;-63
2021/07/17 02:57:18;;;;;;;13.67;10.53;;;22.70;99.90;;;;;;5117517;28;20251;-63
2021/07/17 02:59:43;;;;;;;14.47;10.03;;;22.70;99.90;;;;;;5117562;28;20196;-69
2021/07/17 03:02:09;;;;;;;15.23;10.27;;;22.60;99.90;;;;;;5117513;28;20816;-64
2021/07/17 03:04:34;;;;;;;10.40;9.20;;;22.60;99.90;;;;;;5117686;28;20183;-69
2021/07/17 03:07:00;;;;;;;16.50;9.03;;;22.60;99.90;;;;;;5099143;28;20256;-69
2021/07/17 03:09:26;;;;;;;12.30;9.90;;;22.60;99.90;;;;;;5099325;28;20205;-69
2021/07/17 03:11:51;;;;;;;11.70;9.47;;;22.60;99.90;;;;;;5117521;28;20187;-69
2021/07/17 03:14:17;;;;;;;10.60;8.13;;;22.50;99.90;;;;;;5099392;28;20172;-69
2021/07/17 03:16:43;;;;;;;14.20;10.07;;;22.50;99.90;;;;;;5117248;28;20214;-69
2021/07/17 03:19:08;;;;;;;15.80;9.00;;;22.50;99.90;;;;;;5117325;28;20180;-69
2021/07/17 03:21:34;;;;;;;12.40;9.43;;;22.40;99.90;;;;;;5117276;28;20212;-69
2021/07/17 03:24:00;;;;;;;12.30;9.60;;;22.40;99.90;;;;;;5117107;28;20240;-69
2021/07/17 03:26:26;;;;;;;11.80;9.43;;;22.40;99.90;;;;;;5117720;28;20451;-69
2021/07/17 03:28:51;;;;;;;9.73;8.30;;;22.50;99.90;;;;;;5098737;28;20656;-69
2021/07/17 03:31:28;;;;;;;10.90;9.53;;;22.50;99.90;;;;;;5117761;28;20432;-63
2021/07/17 03:33:55;;;;;;;11.00;9.00;;;22.50;99.90;;;;;;5098976;28;20235;-64
2021/07/17 03:36:21;;;;;;;12.27;9.27;;;22.50;99.90;;;;;;5098706;28;20858;-69
2021/07/17 03:38:46;;;;;;;10.57;9.47;;;22.50;99.90;;;;;;5116860;28;20435;-64
2021/07/17 03:41:12;;;;;;;11.37;9.37;;;22.50;99.90;;;;;;5097822;28;20207;-63
2021/07/17 03:43:37;;;;;;;11.20;9.37;;;22.50;99.90;;;;;;5116775;28;20306;-70
2021/07/17 03:46:03;;;;;;;11.73;9.30;;;22.60;99.90;;;;;;5117171;28;20199;-64
2021/07/17 03:48:29;;;;;;;12.53;9.80;;;22.60;99.90;;;;;;5098445;28;20192;-67
2021/07/17 03:50:54;;;;;;;15.60;10.67;;;22.60;99.90;;;;;;5117272;28;20657;-69
2021/07/17 03:53:20;;;;;;;11.30;9.40;;;22.60;99.90;;;;;;5116645;28;20191;-64
2021/07/17 03:55:45;;;;;;;12.00;10.13;;;22.60;99.90;;;;;;5117024;28;20199;-63
2021/07/17 03:58:11;;;;;;;12.27;9.70;;;22.60;99.90;;;;;;5116475;28;20555;-69
2021/07/17 04:00:37;;;;;;;9.80;8.80;;;22.60;99.90;;;;;;5116378;28;20692;-70
2021/07/17 04:03:04;;;;;;;10.77;8.90;;;22.70;99.90;;;;;;5116219;28;20204;-65
2021/07/17 04:05:29;;;;;;;13.07;10.70;;;22.60;99.90;;;;;;5098311;28;20331;-69
2021/07/17 04:07:55;;;;;;;14.70;9.63;;;22.60;99.90;;;;;;5116303;28;20408;-68
2021/07/17 04:10:21;;;;;;;12.17;9.80;;;22.60;99.90;;;;;;5098108;28;20452;-63
2021/07/17 04:12:46;;;;;;;16.47;11.00;;;22.60;99.90;;;;;;5116239;28;20179;-65
2021/07/17 04:15:12;;;;;;;14.60;10.80;;;22.60;99.90;;;;;;5098045;28;20210;-69
2021/07/17 04:17:38;;;;;;;13.87;10.40;;;22.60;99.90;;;;;;5097798;28;20182;-70
2021/07/17 04:20:05;;;;;;;21.83;12.33;;;22.60;99.90;;;;;;5116399;28;20207;-69
2021/07/17 04:22:31;;;;;;;16.50;10.83;;;22.60;99.90;;;;;;5097635;28;20260;-64
2021/07/17 04:24:57;;;;;;;15.37;10.60;;;22.60;99.90;;;;;;5115965;28;20413;-69
2021/07/17 04:27:22;;;;;;;14.40;10.33;;;22.60;99.90;;;;;;5115922;28;20579;-64
2021/07/17 04:29:48;;;;;;;14.80;10.97;;;22.60;99.90;;;;;;5116190;28;20184;-66
2021/07/17 04:32:13;;;;;;;15.60;10.70;;;22.60;99.90;;;;;;5115828;28;20176;-70
2021/07/17 04:34:39;;;;;;;13.43;10.73;;;22.60;99.90;;;;;;5116110;28;20259;-70
2021/07/17 04:37:05;;;;;;;14.20;10.70;;;22.60;99.90;;;;;;5115760;28;20224;-65
2021/07/17 04:39:31;;;;;;;12.00;9.70;;;22.60;99.90;;;;;;5115936;28;20180;-66
2021/07/17 04:41:57;;;;;;;9.50;8.40;;;22.50;99.90;;;;;;5115640;28;20475;-64
2021/07/17 04:44:22;;;;;;;9.70;8.37;;;22.50;99.90;;;;;;5115854;28;20621;-69
2021/07/17 04:46:48;;;;;;;8.93;8.07;;;22.50;99.90;;;;;;5097268;28;20198;-63
2021/07/17 04:49:14;;;;;;;10.80;8.00;;;22.40;99.90;;;;;;5115634;28;20173;-69
2021/07/17 04:51:39;;;;;;;10.20;8.70;;;22.50;99.90;;;;;;5097083;28;20279;-69
2021/07/17 04:54:05;;;;;;;11.30;9.50;;;22.40;99.90;;;;;;5115391;28;20262;-69
2021/07/17 04:56:30;;;;;;;10.60;8.50;;;22.40;99.90;;;;;;5115519;28;20199;-69
2021/07/17 04:58:56;;;;;;;16.77;10.07;;;22.40;99.90;;;;;;5115247;28;20614;-69
2021/07/17 05:01:22;;;;;;;11.60;9.30;;;22.40;99.90;;;;;;5115116;28;20233;-69
2021/07/17 05:03:48;;;;;;;12.73;9.97;;;22.40;99.90;;;;;;5096911;28;20228;-65
2021/07/17 05:06:14;;;;;;;13.10;10.20;;;22.40;99.90;;;;;;5097216;28;20208;-65
2021/07/17 05:08:39;;;;;;;13.20;9.80;;;22.40;99.90;;;;;;5115254;28;20404;-64
2021/07/17 05:11:05;;;;;;;12.30;10.10;;;22.40;99.90;;;;;;5115545;28;20444;-64
2021/07/17 05:13:31;;;;;;;12.37;9.53;;;22.40;99.90;;;;;;5096730;28;20188;-70
2021/07/17 05:15:56;;;;;;;11.53;9.50;;;22.40;99.90;;;;;;5115432;28;20199;-70
2021/07/17 05:18:22;;;;;;;14.33;9.40;;;22.40;99.90;;;;;;5096668;28;20176;-64
2021/07/17 05:20:48;;;;;;;11.40;9.50;;;22.40;99.90;;;;;;5115352;28;20244;-63
2021/07/17 05:23:16;;;;;;;11.30;10.20;;;22.40;99.90;;;;;;5114698;28;20199;-69
2021/07/17 05:25:42;;;;;;;10.67;9.57;;;22.40;99.90;;;;;;5096707;28;20554;-70
2021/07/17 05:28:08;;;;;;;11.10;9.70;;;22.50;99.90;;;;;;5114757;28;20542;-63
2021/07/17 05:30:34;;;;;;;10.07;8.97;;;22.50;99.90;;;;;;5115113;28;20509;-64
2021/07/17 05:32:59;;;;;;;12.90;10.17;;;22.50;99.90;;;;;;5096403;28;20179;-64
2021/07/17 05:35:28;;;;;;;12.80;10.30;;;22.50;99.90;;;;;;5114632;28;20235;-63
2021/07/17 05:37:57;;;;;;;14.27;10.50;;;22.60;99.90;;;;;;5114583;28;20698;-69
2021/07/17 05:40:24;;;;;;;10.90;9.80;;;22.60;99.90;;;;;;5096460;28;20807;-64
2021/07/17 05:42:49;;;;;;;11.83;9.70;;;22.60;99.90;;;;;;5114374;28;20456;-70
2021/07/17 05:45:15;;;;;;;13.97;10.17;;;22.70;99.90;;;;;;5114730;28;20539;-64
2021/07/17 05:47:41;;;;;;;13.60;11.30;;;22.70;99.90;;;;;;5114458;28;20190;-64
2021/07/17 05:50:07;;;;;;;13.60;10.37;;;22.80;99.90;;;;;;5114347;28;20436;-64
2021/07/17 05:52:33;;;;;;;15.70;11.17;;;22.80;99.90;;;;;;5114276;28;20184;-63
2021/07/17 05:54:58;;;;;;;12.90;10.50;;;22.90;99.90;;;;;;5114560;28;20432;-64
2021/07/17 05:57:24;;;;;;;10.30;9.23;;;23.00;99.90;;;;;;5096069;28;20634;-64
2021/07/17 05:59:49;;;;;;;12.90;10.33;;;23.00;99.90;;;;;;5113454;28;20227;-63
2021/07/17 06:02:15;;;;;;;10.40;9.30;;;23.10;99.90;;;;;;5114136;28;20231;-64
2021/07/17 06:04:41;;;;;;;11.10;10.00;;;23.20;99.90;;;;;;5095323;28;20188;-70
2021/07/17 06:07:06;;;;;;;10.47;9.40;;;23.20;99.90;;;;;;5114055;28;20192;-69
2021/07/17 06:09:32;;;;;;;10.27;7.90;;;23.30;99.90;;;;;;5114031;28;20219;-64
2021/07/17 06:11:57;;;;;;;9.70;8.63;;;23.30;99.90;;;;;;5113882;28;20197;-64
2021/07/17 06:14:23;;;;;;;8.97;8.00;;;23.40;99.90;;;;;;5114063;28;20223;-64
2021/07/17 06:16:48;;;;;;;10.70;8.57;;;23.40;99.90;;;;;;5114057;28;20186;-64
2021/07/17 06:19:15;;;;;;;10.87;8.93;;;23.50;99.90;;;;;;5114131;28;20223;-70
2021/07/17 06:21:41;;;;;;;9.53;8.60;;;23.50;99.90;;;;;;5095464;28;20198;-64
2021/07/17 06:24:07;;;;;;;13.00;9.20;;;23.50;99.90;;;;;;5113940;28;20406;-70
2021/07/17 06:26:33;;;;;;;10.80;9.00;;;23.60;99.90;;;;;;5095714;28;20437;-64
2021/07/17 06:28:58;;;;;;;12.10;8.97;;;23.60;99.90;;;;;;5095660;28;20181;-70
2021/07/17 06:31:24;;;;;;;9.60;8.50;;;23.70;99.90;;;;;;5114385;28;20835;-70
2021/07/17 06:33:50;;;;;;;12.90;9.07;;;23.70;99.90;;;;;;5113797;28;20612;-70
2021/07/17 06:36:16;;;;;;;11.73;9.00;;;23.70;99.90;;;;;;5098719;28;20299;-70
2021/07/17 06:38:44;;;;;;;10.50;9.00;;;23.80;99.90;;;;;;5132705;28;20189;-64
2021/07/17 06:41:09;;;;;;;11.13;9.57;;;23.80;99.90;;;;;;5132197;28;20440;-70
2021/07/17 06:43:38;;;;;;;12.60;9.27;;;23.90;99.90;;;;;;5113682;28;20463;-69
2021/07/17 06:46:04;;;;;;;10.93;8.70;;;23.90;99.90;;;;;;5132443;28;20205;-70
2021/07/17 06:48:30;;;;;;;13.90;9.90;;;24.00;99.90;;;;;;5132308;28;20772;-64
2021/07/17 06:50:56;;;;;;;12.23;9.70;;;24.00;99.90;;;;;;5132480;28;20441;-70
2021/07/17 06:53:22;;;;;;;10.97;8.47;;;24.10;99.90;;;;;;5131257;28;20414;-70
2021/07/17 06:55:48;;;;;;;12.27;9.13;;;24.10;99.90;;;;;;5132368;28;20229;-64
2021/07/17 06:58:14;;;;;;;13.83;10.17;;;24.10;99.90;;;;;;5133870;28;20174;-65
2021/07/17 07:00:39;;;;;;;11.33;9.73;;;24.20;99.90;;;;;;5115517;28;20457;-70
2021/07/17 07:03:05;;;;;;;16.20;10.77;;;24.20;99.90;;;;;;5120846;28;20233;-70
2021/07/17 07:05:31;;;;;;;10.10;8.60;;;24.30;99.90;;;;;;5113532;28;20224;-64
2021/07/17 07:07:57;;;;;;;15.37;9.40;;;24.30;99.90;;;;;;5111928;28;20202;-70
2021/07/17 07:10:23;;;;;;;10.83;9.67;;;24.40;99.90;;;;;;5113661;28;20492;-64
2021/07/17 07:12:49;;;;;;;13.60;9.17;;;24.50;99.90;;;;;;5113499;28;20746;-65
2021/07/17 07:15:16;;;;;;;10.70;9.67;;;24.50;99.90;;;;;;5113986;28;20256;-64
2021/07/17 07:17:41;;;;;;;14.27;10.77;;;24.60;99.90;;;;;;5116337;27;20405;-69
2021/07/17 07:20:09;;;;;;;12.53;11.23;;;24.70;99.90;;;;;;5133042;27;20537;-64
2021/07/17 07:22:35;;;;;;;14.87;11.33;;;24.80;99.90;;;;;;5137337;27;20221;-63
2021/07/17 07:25:00;;;;;;;12.77;11.43;;;24.80;99.90;;;;;;5130930;27;20979;-64
2021/07/17 07:27:26;;;;;;;16.30;11.40;;;24.90;99.90;;;;;;5137492;27;20184;-65
2021/07/17 07:29:52;;;;;;;11.83;10.33;;;25.00;99.90;;;;;;5102212;27;20195;-70
2021/07/17 07:32:19;;;;;;;18.03;11.53;;;25.00;99.90;;;;;;5116987;28;20190;-70
2021/07/17 07:34:44;;;;;;;11.87;10.30;;;25.10;99.90;;;;;;5098394;28;20478;-64
2021/07/17 07:37:10;;;;;;;13.50;11.00;;;25.20;99.90;;;;;;5116922;28;20519;-69
2021/07/17 07:39:35;;;;;;;11.93;10.67;;;25.20;99.90;;;;;;5116677;28;20194;-64
2021/07/17 07:42:01;;;;;;;13.57;11.70;;;25.20;99.90;;;;;;5116610;28;20681;-64
2021/07/17 07:44:28;;;;;;;12.93;11.60;;;25.20;99.90;;;;;;5098272;28;20575;-64
2021/07/17 07:46:54;;;;;;;14.00;10.53;;;25.20;99.90;;;;;;5116623;28;20663;-70
2021/07/17 07:49:20;;;;;;;14.40;11.40;;;25.20;99.90;;;;;;5116340;28;20494;-70
2021/07/17 07:51:45;;;;;;;13.47;11.13;;;25.20;99.90;;;;;;5116598;28;20657;-70
2021/07/17 07:54:11;;;;;;;14.80;13.03;;;25.20;99.90;;;;;;5116279;28;20187;-70
2021/07/17 07:56:37;;;;;;;11.50;10.30;;;25.30;99.90;;;;;;5116450;28;20199;-64
2021/07/17 07:59:02;;;;;;;13.63;11.77;;;25.30;99.90;;;;;;5116159;28;20183;-66
2021/07/17 08:01:28;;;;;;;13.80;11.27;;;25.30;99.90;;;;;;5098143;28;20246;-70
2021/07/17 08:03:53;;;;;;;18.07;16.27;;;25.40;99.90;;;;;;5116254;28;20179;-69
2021/07/17 08:06:19;;;;;;;15.50;12.90;;;25.40;99.90;;;;;;5116349;28;20207;-69
2021/07/17 08:08:45;;;;;;;14.10;12.17;;;25.40;99.90;;;;;;5115872;28;20179;-70
2021/07/17 08:11:10;;;;;;;16.17;12.80;;;25.50;99.90;;;;;;5116678;28;20263;-70
2021/07/17 08:13:36;;;;;;;14.30;12.50;;;25.50;99.90;;;;;;5115945;28;20577;-64
2021/07/17 08:16:02;;;;;;;13.57;11.77;;;25.50;99.90;;;;;;5116409;28;20723;-70
2021/07/17 08:18:29;;;;;;;15.53;11.60;;;25.60;99.90;;;;;;5115519;28;20202;-69
2021/07/17 08:20:55;;;;;;;13.90;12.10;;;25.60;99.90;;;;;;5116261;28;20786;-64
2021/07/17 08:23:21;;;;;;;13.10;11.77;;;25.70;99.90;;;;;;5124011;27;20464;-70
2021/07/17 08:25:47;;;;;;;14.20;12.07;;;25.90;99.90;;;;;;5136306;27;20958;-65
2021/07/17 08:28:13;;;;;;;17.73;13.03;;;26.00;99.90;;;;;;5117039;27;20220;-65
2021/07/17 08:30:38;;;;;;;15.03;13.20;;;26.10;99.90;;;;;;5135722;27;20967;-65
2021/07/17 08:33:05;;;;;;;13.63;12.00;;;26.20;99.90;;;;;;5134804;27;20690;-70
2021/07/17 08:35:31;;;;;;;15.17;12.83;;;26.30;99.90;;;;;;5136481;27;20203;-69
2021/07/17 08:37:57;;;;;;;15.60;14.00;;;26.30;99.90;;;;;;5135111;27;20514;-69
2021/07/17 08:40:23;;;;;;;15.07;12.33;;;26.30;99.90;;;;;;5135285;27;20457;-67
2021/07/17 08:42:51;;;;;;;14.77;11.87;;;26.40;99.90;;;;;;5135527;27;20455;-67
2021/07/17 08:45:17;;;;;;;14.63;11.83;;;26.40;99.90;;;;;;5134736;27;20454;-69
2021/07/17 08:47:44;;;;;;;13.17;11.67;;;26.50;99.90;;;;;;5128859;27;20778;-67
2021/07/17 08:50:16;;;;;;;14.20;12.53;;;26.50;99.90;;;;;;5135624;27;20447;-69
2021/07/17 08:52:42;;;;;;;13.70;12.30;;;26.60;99.90;;;;;;5117148;27;20895;-70
2021/07/17 08:55:09;;;;;;;13.27;11.87;;;26.60;99.90;;;;;;5134688;27;20454;-70
2021/07/17 08:57:37;;;;;;;13.93;12.50;;;26.70;99.90;;;;;;5117045;27;20415;-70
2021/07/17 09:00:08;;;;;;;13.20;11.57;;;26.80;99.90;;;;;;5115705;27;20558;-70
2021/07/17 09:02:46;;;;;;;14.70;12.37;;;26.90;99.90;;;;;;5116290;27;20997;-65
2021/07/17 09:05:15;;;;;;;14.30;12.90;;;27.00;99.90;;;;;;5135903;27;20442;-69
2021/07/17 09:07:40;;;;;;;15.47;13.07;;;27.00;99.90;;;;;;5135230;27;20541;-65
2021/07/17 09:10:34;;;;;;;13.47;11.93;;;27.10;99.90;;;;;;5134260;27;20549;-70
2021/07/17 09:13:06;;;;;;;14.45;12.35;;;27.10;99.90;;;;;;5133775;27;20435;-71
2021/07/17 09:15:32;;;;;;;16.27;13.50;;;27.20;99.90;;;;;;5117056;27;20203;-65
2021/07/17 09:17:58;;;;;;;15.07;12.80;;;27.20;99.90;;;;;;5134349;27;20415;-66
2021/07/17 09:20:24;;;;;;;13.10;11.77;;;27.30;99.90;;;;;;5134427;27;20507;-70
2021/07/17 09:22:58;;;;;;;12.20;10.90;;;27.30;99.90;;;;;;5115428;27;20206;-70
2021/07/17 09:25:24;;;;;;;11.70;10.47;;;27.30;99.90;;;;;;5115676;27;20224;-64
2021/07/17 09:27:49;;;;;;;16.30;11.37;;;27.40;99.90;;;;;;5135105;27;20400;-65
2021/07/17 09:30:34;;;;;;;12.87;11.47;;;27.40;99.90;;;;;;5133020;27;21007;-71
2021/07/17 09:33:04;;;;;;;12.83;11.53;;;27.50;99.90;;;;;;5133019;27;20184;-70
2021/07/17 09:35:33;;;;;;;14.47;12.93;;;27.50;99.90;;;;;;5115083;27;20451;-70
2021/07/17 09:38:01;;;;;;;13.50;12.13;;;27.60;99.90;;;;;;5133455;27;20402;-70
2021/07/17 09:40:40;;;;;;;14.40;13.07;;;27.60;99.90;;;;;;5132661;27;20432;-70
2021/07/17 09:43:06;;;;;;;13.93;12.50;;;27.60;99.90;;;;;;5133637;27;20549;-70
2021/07/17 09:45:33;;;;;;;12.37;11.17;;;27.70;99.90;;;;;;5114840;27;20936;-65
2021/07/17 09:47:59;;;;;;;11.83;10.63;;;27.70;99.90;;;;;;5115846;27;20684;-65
2021/07/17 09:50:32;;;;;;;14.67;12.20;;;27.70;99.90;;;;;;5134424;27;20459;-70
2021/07/17 09:52:59;;;;;;;14.50;11.90;;;27.70;99.90;;;;;;5116107;27;20484;-70
2021/07/17 09:55:25;;;;;;;12.97;11.60;;;27.80;99.90;;;;;;5116139;27;20476;-70
2021/07/17 09:57:51;;;;;;;15.60;11.47;;;27.80;99.90;;;;;;5128004;27;20804;-65
2021/07/17 10:00:23;;;;;;;13.73;12.00;;;27.80;99.90;;;;;;5130755;27;20227;-65
2021/07/17 10:02:49;;;;;;;13.20;11.80;;;27.90;99.90;;;;;;5132818;27;20546;-65
2021/07/17 10:05:16;;;;;;;14.07;12.50;;;27.90;99.90;;;;;;5132577;27;20439;-70
2021/07/17 10:07:42;;;;;;;14.13;11.23;;;28.00;99.90;;;;;;5125852;27;20798;-71
2021/07/17 10:10:08;;;;;;;13.37;11.30;;;28.00;99.90;;;;;;5115412;27;20457;-70
2021/07/17 10:12:40;;;;;;;12.27;10.90;;;28.10;99.90;;;;;;5134209;27;20593;-64
2021/07/17 10:15:13;;;;;;;9.67;8.80;;;28.10;99.90;;;;;;5133949;27;20814;-64
2021/07/17 10:17:43;;;;;;;13.67;12.23;;;28.20;99.90;;;;;;5133872;27;20389;-70
2021/07/17 10:20:11;;;;;;;11.07;9.97;;;28.30;99.90;;;;;;5116210;28;20950;-64
2021/07/17 10:22:37;;;;;;;13.80;10.20;;;28.30;99.90;;;;;;5133941;28;20819;-65
2021/07/17 10:25:05;;;;;;;13.33;11.10;;;28.40;99.90;;;;;;5114289;28;20440;-71
2021/07/17 10:27:31;;;;;;;14.60;11.00;;;28.40;99.90;;;;;;5133321;28;20425;-70
2021/07/17 10:29:57;;;;;;;11.07;9.97;;;28.40;99.90;;;;;;5132491;28;20834;-71
2021/07/17 10:32:23;;;;;;;12.57;11.30;;;28.50;99.90;;;;;;5132387;28;20294;-71
2021/07/17 10:34:50;;;;;;;13.23;10.40;;;28.50;99.90;;;;;;5113946;28;20539;-70
2021/07/17 10:37:26;;;;;;;11.00;9.60;;;28.50;99.90;;;;;;5132704;28;20393;-71
2021/07/17 10:40:04;;;;;;;12.17;10.90;;;28.50;99.90;;;;;;5132838;28;20416;-65
2021/07/17 10:42:31;;;;;;;13.53;11.60;;;28.60;99.90;;;;;;5133334;28;20497;-71
2021/07/17 10:44:56;;;;;;;11.10;9.97;;;28.60;99.90;;;;;;5134585;28;20421;-64
2021/07/17 10:47:23;;;;;;;11.23;10.07;;;28.70;99.90;;;;;;5134506;28;20910;-71
2021/07/17 10:49:54;;;;;;;11.50;10.40;;;28.70;99.90;;;;;;5134349;28;20642;-64
2021/07/17 10:52:39;;;;;;;11.63;10.43;;;28.70;99.90;;;;;;5119828;27;20493;-71
2021/07/17 10:55:24;;;;;;;11.40;10.27;;;28.60;99.90;;;;;;5119827;27;20479;-71
2021/07/17 10:57:51;;;;;;;15.43;11.63;;;28.60;99.90;;;;;;5138402;27;20420;-65
2021/07/17 11:00:41;;;;;;;12.47;10.20;;;28.60;99.90;;;;;;5138080;27;20550;-71
2021/07/17 11:03:30;;;;;;;13.40;11.07;;;28.50;99.90;;;;;;5138128;27;20469;-71
2021/07/17 11:05:56;;;;;;;11.60;10.13;;;28.50;99.90;;;;;;5137131;27;20480;-71
2021/07/17 11:08:37;;;;;;;12.67;11.23;;;28.50;99.90;;;;;;5134533;27;20448;-71
2021/07/17 11:11:28;;;;;;;12.30;11.03;;;28.50;99.90;;;;;;5099248;28;20459;-71
2021/07/17 11:14:19;;;;;;;11.60;10.43;;;28.40;99.90;;;;;;5117164;28;20410;-71
2021/07/17 11:16:47;;;;;;;14.33;10.80;;;28.50;99.90;;;;;;5117336;28;20444;-71
2021/07/17 11:19:25;;;;;;;12.27;11.07;;;28.50;99.90;;;;;;5098578;28;20468;-71
2021/07/17 11:21:51;;;;;;;12.47;10.90;;;28.50;99.90;;;;;;5098864;28;20479;-64
2021/07/17 11:24:17;;;;;;;13.77;12.00;;;28.50;99.90;;;;;;5116967;28;20492;-64
2021/07/17 11:26:43;;;;;;;14.77;12.60;;;28.60;99.90;;;;;;5098782;28;20962;-65
2021/07/17 11:29:11;;;;;;;12.23;10.70;;;28.60;99.90;;;;;;5116119;28;20493;-71
2021/07/17 11:31:39;;;;;;;14.57;11.33;;;28.60;99.90;;;;;;5116946;28;20196;-65
2021/07/17 11:34:17;;;;;;;12.23;11.03;;;28.60;99.90;;;;;;5098535;28;20425;-64
2021/07/17 11:36:52;;;;;;;12.60;10.60;;;28.60;99.90;;;;;;5098684;28;20436;-64
2021/07/17 11:39:21;;;;;;;13.73;12.20;;;28.60;99.90;;;;;;5116574;28;20415;-64
2021/07/17 11:41:48;;;;;;;14.17;12.00;;;28.60;99.90;;;;;;5117059;27;20425;-70
2021/07/17 11:44:14;;;;;;;12.47;11.27;;;28.60;99.90;;;;;;5132545;27;20408;-65
2021/07/17 11:46:53;;;;;;;14.90;12.03;;;28.60;99.90;;;;;;5127108;27;20562;-71
2021/07/17 11:49:19;;;;;;;12.57;11.30;;;28.60;99.90;;;;;;5110200;27;20425;-65
2021/07/17 11:51:53;;;;;;;14.50;12.03;;;28.70;99.90;;;;;;5133670;27;20967;-69
2021/07/17 11:54:30;;;;;;;12.50;11.20;;;28.70;99.90;;;;;;5118719;27;20633;-67
2021/07/17 11:57:07;;;;;;;13.07;11.77;;;28.80;99.90;;;;;;5134241;27;20457;-65
2021/07/17 11:59:35;;;;;;;13.70;11.90;;;28.90;99.90;;;;;;5106126;27;20453;-71
2021/07/17 12:02:05;;;;;;;12.37;11.03;;;28.90;99.90;;;;;;5121536;27;20496;-66
2021/07/17 12:04:38;;;;;;;13.60;12.30;;;29.00;99.90;;;;;;5131786;27;20462;-66
2021/07/17 12:07:18;;;;;;;13.40;11.20;;;29.00;99.90;;;;;;5134600;27;20464;-66
2021/07/17 12:09:46;;;;;;;14.20;11.87;;;29.10;99.90;;;;;;5122649;27;20470;-65
2021/07/17 12:12:13;;;;;;;12.93;11.63;;;29.10;99.90;;;;;;5115341;27;20888;-69
2021/07/17 12:14:39;;;;;;;14.30;12.90;;;29.20;99.90;;;;;;5117297;27;20918;-66
2021/07/17 12:17:05;;;;;;;14.73;12.00;;;29.20;99.90;;;;;;5136956;27;20409;-66
2021/07/17 12:19:30;;;;;;;13.90;10.97;;;29.30;99.90;;;;;;5127742;27;20190;-66
2021/07/17 12:21:57;;;;;;;12.53;10.93;;;29.30;99.90;;;;;;5132496;27;20821;-66
2021/07/17 12:24:22;;;;;;;12.33;10.80;;;29.30;99.90;;;;;;5125412;27;20195;-70
2021/07/17 12:26:48;;;;;;;13.33;11.20;;;29.40;99.90;;;;;;5111188;27;20445;-70
2021/07/17 12:29:13;;;;;;;13.13;11.77;;;29.40;99.90;;;;;;5109870;27;20181;-66
2021/07/17 12:31:54;;;;;;;13.13;11.73;;;29.50;99.90;;;;;;5110476;27;20209;-71
2021/07/17 12:34:19;;;;;;;13.47;11.47;;;29.50;99.90;;;;;;5127932;27;20737;-66